Airfield :
LOGIN :

Register | Disclaimer

   EN    FR    IT 

 










Legend :    VFR   Marginal VFR   IFR   Intensive IFR   Very Intensive IFR
Visi :
Ceiling :
>= 8 km
>= 3000ft
5 to 8 km
1000 to 3000 ft
1500m to 5 km
500 to 1000 ft
800 to 1500m
200 to 500 ft
< 800m
< 200 ft
Symbols :   Thunderstorms  Fog  Heavy snow  Heavy precipitations  Wind > 20 kt
SIGMETs :     Misc.  Thunderstorms  Icing  Turbulence  Mountain Waves  Volcanic Ashes






- Airport Elevation : 412 ft
- IATA code : ORE


LFOJ - Orleans

CURRENT METAR :
  • 191730Z AUTO 19007KT 9999 BKN040 OVC058 ///// Q1025 TEMPO 4900 -RA

EXPIRED METARs :
  • 191700Z AUTO 21007KT 9999 OVC041 ///// Q1025 TEMPO 4900 -RA
  • 191630Z AUTO 22007KT 9999 OVC043 ///// Q1025 TEMPO 4900 -RA
  • 191600Z AUTO 23007KT 9999 -RA FEW035 BKN046 OVC056 ///// Q1025 TEMPO 4900 -RA
  • 191530Z AUTO 24010KT 9999 SCT029 BKN042 OVC062 09/06 Q1026 TEMPO 4900 -RA
  • 191500Z AUTO 24010KT 9999 FEW026 BKN041 OVC050 10/06 Q1026 TEMPO 4900 -RA

TAF TAF LFOJ
Valid from the 19 at 15:00 until the 20 at 15:00 UTC


191400Z 1915/2015 23012KT 9999 BKN025
TEMPO 1915/1919 4900 -RA
BECMG 2000/2002 4000 -RADZ OVC008
PROB40
TEMPO 2003/2010 BKN005 BKN014
BECMG 2010/2012 22020G30KT BKN012 BKN020



MET'MAP, your aeronautical weather chart ! - Copyright ORBIFLY December 2007 - Disclaimer

ORBIFLY MET'MAP TEAM :

Programming & Development : Alexandra Zaïnal
Concept & original design : Baudouin d'Aumeries
Assistance for programming : Marc-Olivier Méhu
Technical & hardware support : Manuel Goepfert

Contact : metmap@orbifly.com




SOURCES & CREDITS :

   NOAA